Monday, January 21, 2019, 10:10 PM GMT
Back to Local

CYQI, Yarmouth, N. S.

Location: , , Canada Lat: 43.833
Local Time: 10:10 PM GMT (22:10 GMT) Lon: -66.083
Time Zone: GMT Elev: 141 ft

Show me the last for .
Show Decoded

2019-01-21 21:52 METAR CYQI 212152Z 34014KT 6SM -SHSN BKN016 OVC035 M07/M10 A2956 RMK SF6SC2
                 CVCTV CLD EMBD SLP014 =
2019-01-21 21:21 METAR CYQI 212121Z 32011G17KT 7SM BKN015 OVC059 M07/M10 A2956 RMK SF7SC1 SLP013
                 =
2019-01-21 21:00 METAR CYQI 212100Z 33012KT 6SM -SHSN BKN025 OVC052 M07/M10 A2955 RMK SF7SC1
                 CVCTV CLD EMBD SLP010 =
2019-01-21 20:00 METAR CYQI 212000Z 30011G19KT 6SM -SHSN BKN024 OVC040 M06/M10 A2953 RMK SF6SC2
                 CVCTV CLD EMBD SLP004 =
2019-01-21 19:00 METAR CYQI 211900Z 31015KT 6SM -SHSN BKN020 OVC040 M06/M09 A2950 RMK SF6SC2
                 CVCTV CLD EMBD SLP993 =
2019-01-21 18:16 METAR CYQI 211816Z 33011KT 3SM -SHSN BKN015 OVC025 M06/M09 A2950 RMK SN3SF4SC1
                 CVCTV CLD EMBD SLP993 =
2019-01-21 18:00 METAR CYQI 211800Z 32013G18KT 3SM -SN BKN020 OVC036 M06/M09 A2949 RMK SN3SF4SC1
                 /S01/ SLP990 =
2019-01-21 17:43 METAR CYQI 211743Z 30013G19KT 3SM -SN BKN021 OVC045 M06/M09 A2949 RMK SN2SF3SC3
                 SLP989 =
2019-01-21 17:38 METAR CYQI 211738Z 31014KT 2 1/2SM -SN BKN016 OVC046 M06/M09 A2949 RMK SN3SC3SC2
                 SLP989 =
2019-01-21 17:27 METAR CYQI 211727Z 30015KT 280V340 1 3/4SM -SN OVC014 M06/M08 A2949 RMK SN6SC2
                 SLP988 =
2019-01-21 17:22 METAR CYQI 211722Z 31011KT 2 1/2SM -SN OVC015 M05/M08 A2948 RMK SN5SC3 SLP986 =
2019-01-21 17:00 METAR CYQI 211700Z 32010G15KT 4SM -SN BKN026 OVC044 M05/M08 A2948 RMK SN1SC6SC1
                 SLP986 =
2019-01-21 16:51 METAR CYQI 211651Z 30012G17KT 3SM -SN BKN016 OVC041 M05/M08 A2948 RMK SN2SC5SC1
                 SLP987 =
2019-01-21 16:47 METAR CYQI 211647Z 32013KT 2 1/4SM -SN OVC015 M05/M08 A2948 RMK SN2SC6 SLP987 =
2019-01-21 16:00 METAR CYQI 211600Z 29013G18KT 1 1/4SM -SN DRSN OVC018 M05/M07 A2949 RMK SN6SC2
                 SLP990 =
2019-01-21 15:36 METAR CYQI 211536Z 27013KT 1 1/2SM -SN DRSN OVC014 M05/M07 A2949 RMK SN4SC4
                 SLP989 =
2019-01-21 15:07 METAR CYQI 211507Z 28009G17KT 1 3/4SM -SN DRSN OVC020 M05/M07 A2947 RMK SN3SC5
                 SLP984 =
2019-01-21 15:01 METAR CYQI 211501Z 29014KT 2 1/4SM -SN DRSN OVC017 M05/M07 A2947 RMK SN2SC6
                 SLP983 =
2019-01-21 15:00 METAR CYQI 211500Z 28013KT 3SM -SN DRSN OVC016 M05/M07 A2947 RMK SN1SC7 SLP983 =
2019-01-21 14:34 METAR CYQI 211434Z 27012G18KT 7SM -SN OVC015 M05/M07 A2945 RMK SC8 SLP976 =
2019-01-21 14:00 METAR CYQI 211400Z 28011G18KT 9SM -SHSN OVC012 M05/M07 A2943 RMK SC8 CVCTV CLD
                 EMBD SLP970 =
2019-01-21 13:00 METAR CYQI 211300Z 27015KT 9SM -SHSN OVC013 M05/M07 A2940 RMK SC8 CVCTV CLD EMBD
                 SLP960 =
2019-01-21 12:53 METAR CYQI 211253Z 28015G21KT 9SM -SHSN OVC012 M05/M06 A2940 RMK SC8 CVCTV CLD
                 EMBD SLP958 =
2019-01-21 12:34 METAR CYQI 211234Z 29011G20KT 12SM OVC011 M05/M06 A2938 RMK SC8 PRESRR SLP952 =
2019-01-21 12:00 METAR CYQI 211200Z 28014KT 12SM OVC009 M05/M06 A2935 RMK SF8 SLP943 =
2019-01-21 11:00 METAR CYQI 211100Z 29015G21KT 9SM OVC006 M04/M05 A2932 RMK SF8 SLP931 =
2019-01-21 10:43 METAR CYQI 211043Z 29017KT 9SM OVC006 M04/M05 A2931 RMK SF8 SLP930 =
2019-01-21 10:00 METAR CYQI 211000Z 28014G21KT 6SM -SHSN OVC007 M04/M04 A2930 RMK SF8 CVCTV CLD
                 EMBD PRESRR SLP924 =
2019-01-21 09:00 METAR CYQI 210900Z 28010G20KT 3SM -SHSN OVC006 M03/M03 A2925 RMK SF8 CVCTV CLD
                 EMBD PRESRR SLP907 =
2019-01-21 08:00 METAR CYQI 210800Z CCA 28020KT 2SM -SHSN BR OVC004 M02/M02 A2923 RMK SF8 CVCTV
                 CLD EMBD PRESRR SLP902 =
2019-01-21 07:06 METAR CYQI 210706Z 27015G22KT 2SM BR OVC003 M01/M01 A2918 RMK SF8 PRESRR SLP885
                 =
2019-01-21 07:00 METAR CYQI 210700Z 27014G20KT 1SM BR OVC002 M01/M01 A2919 RMK FG2SF6 PRESRR
                 SLP886 =
2019-01-21 06:00 METAR CYQI 210600Z 27014G20KT 3/4SM BR OVC003 02/02 A2914 RMK FG6SF2 SLP870 =
2019-01-21 05:35 METAR CYQI 210535Z 27012KT 1SM BR OVC002 03/03 A2912 RMK FG4SF4 SLP863 =
2019-01-21 05:19 METAR CYQI 210519Z 26012KT 1/2SM FG VV002 04/04 A2913 RMK FG8 SLP868 =
2019-01-21 05:00 METAR CYQI 210500Z 25012G19KT 3/4SM -DZ BR VV003 05/05 A2912 RMK FG8 SLP864 =
2019-01-21 04:47 METAR CYQI 210447Z 23015G25KT 3/4SM -DZ BR VV003 06/06 A2912 RMK FG8 SLP864 =
2019-01-21 04:08 METAR CYQI 210408Z 20015G20KT 1/2SM -DZ FG VV003 07/07 A2913 RMK FG8 PRESRR
                 SLP867 DENSITY ALT 200FT =
2019-01-21 04:00 METAR CYQI 210400Z 19013KT 3/4SM -SHRA BR OVC003 07/07 A2913 RMK FG6SF2 CVCTV
                 CLD EMBD PRESRR SLP868 DENSITY ALT 200FT =
2019-01-21 03:47 METAR CYQI 210347Z 18012G19KT 3/4SM -SHRA BR OVC003 07/07 A2910 RMK FG4SF4 CVCTV
                 CLD EMBD PRESFR SLP858 DENSITY ALT 200FT =
2019-01-21 03:00 METAR CYQI 210300Z 19022G28KT 1SM -SHRA BR OVC002 08/07 A2915 RMK FG2SF6 CVCTV
                 CLD EMBD SLP874 DENSITY ALT 200FT =
2019-01-21 02:55 METAR CYQI 210255Z 19021G30KT 1SM -SHRA BR OVC002 08/07 A2914 RMK FG2SF6 CVCTV
                 CLD EMBD PRESFR SLP869 DENSITY ALT 200FT =
2019-01-21 02:00 METAR CYQI 210200Z 18023G33KT 2SM -SHRA BR OVC002 08/08 A2918 RMK SF8 CVCTV CLD
                 EMBD SLP883 DENSITY ALT 200FT =
2019-01-21 01:39 METAR CYQI 210139Z 18023G35KT 2SM -SHRA BR OVC002 08/08 A2919 RMK SF8 CVCTV CLD
                 EMBD SLP886 DENSITY ALT 200FT =
2019-01-21 01:33 METAR CYQI 210133Z 19022G36KT 2SM -DZ BR OVC002 08/08 A2919 RMK SF8 SLP886
                 DENSITY ALT 200FT =
2019-01-21 01:15 METAR CYQI 210115Z 20021G30KT 2SM BR OVC002 08/08 A2920 RMK SF8 SLP890 DENSITY
                 ALT 300FT
2019-01-21 01:00 METAR CYQI 210100Z 18024G34KT 2SM -SHRA BR OVC003 09/09 A2921 RMK SF8 CVCTV CLD
                 EMBD SLP894 DENSITY ALT 300FT =
2019-01-21 00:42 METAR CYQI 210042Z 18024G37KT 2SM -RA BR SCT002 OVC006 09/09 A2920 RMK SF4SF4
                 SLP890 DENSITY ALT 400FT =
2019-01-21 00:00 METAR CYQI 210000Z 18031G46KT 3SM -RA BR BKN005 BKN012 OVC025 10/10 A2924 RMK
                 FG2SF3SC1NS2 /R11/ SLP903 DENSITY ALT 400FT =
2019-01-20 23:49 METAR CYQI 202349Z 18028G48KT 3SM -RA BR BKN005 BKN012 OVC022 10/09 A2925 RMK
                 FG2SF3SC1NS2 SLP906 DENSITY ALT 400FT =
2019-01-20 23:39 METAR CYQI 202339Z 17027G41KT 2SM +RA BR BKN004 OVC022 10/09 A2924 RMK RA5SF2NS1
                 SLP904 DENSITY ALT 400FT =
2019-01-20 23:00 METAR CYQI 202300Z 17026G38KT 2 1/2SM -RA BR BKN011 OVC042 09/09 A2925 RMK
                 FG3SF2NS3 VIS VRB 13/4-4 PRESFR SLP910 DENSITY ALT 300FT =

Support USWX by starting your Amazon purchase here.